createdAt,value
2018-05-16T00:02:20.711Z,12.00
2018-05-16T00:07:11.636Z,12.00
2018-05-16T00:12:02.546Z,12.10
2018-05-16T00:16:53.453Z,12.10
2018-05-16T00:21:44.408Z,12.10
2018-05-16T00:26:36.791Z,12.20
2018-05-16T00:31:27.764Z,12.20
2018-05-16T00:36:18.664Z,12.30
2018-05-16T00:41:09.568Z,12.30
2018-05-16T00:46:00.467Z,12.30
2018-05-16T00:51:03.864Z,12.40
2018-05-16T00:55:55.516Z,12.40
2018-05-16T01:00:46.407Z,12.40
2018-05-16T01:05:37.412Z,12.40
2018-05-16T01:10:28.316Z,12.50
2018-05-16T01:15:19.337Z,12.50
2018-05-16T01:20:10.232Z,12.50
2018-05-16T01:25:01.120Z,12.50
2018-05-16T01:29:52.753Z,12.60
2018-05-16T01:34:43.664Z,12.60
2018-05-16T01:39:36.040Z,12.60
2018-05-16T01:44:26.936Z,12.60
2018-05-16T01:49:18.626Z,12.70
2018-05-16T01:54:09.528Z,12.60
2018-05-16T01:59:00.472Z,12.70
2018-05-16T02:03:51.377Z,12.70
2018-05-16T02:08:42.284Z,12.70
2018-05-16T02:13:33.193Z,12.70
2018-05-16T02:18:24.092Z,12.70
2018-05-16T02:23:15.784Z,12.70
2018-05-16T02:28:06.701Z,12.70
2018-05-16T02:32:57.593Z,12.70
2018-05-16T02:37:48.541Z,12.80
2018-05-16T02:42:39.440Z,12.80
2018-05-16T02:47:30.393Z,12.80
2018-05-16T02:52:21.253Z,12.80
2018-05-16T02:57:12.152Z,12.80
2018-05-16T03:02:03.792Z,12.80
2018-05-16T03:06:55.428Z,12.80
2018-05-16T03:11:47.065Z,12.80
2018-05-16T03:16:37.969Z,12.80
2018-05-16T03:21:29.669Z,12.80
2018-05-16T03:26:20.573Z,12.80
2018-05-16T03:31:11.509Z,12.80
2018-05-16T03:36:02.404Z,12.80
2018-05-16T03:40:53.317Z,12.80
2018-05-16T03:45:44.268Z,12.80
2018-05-16T03:50:35.164Z,12.80
2018-05-16T03:55:26.112Z,12.80
2018-05-16T04:00:29.452Z,12.80
2018-05-16T04:05:21.165Z,12.90
2018-05-16T04:10:12.056Z,12.80
2018-05-16T04:15:02.948Z,12.90
2018-05-16T04:19:53.865Z,12.90
2018-05-16T04:24:44.760Z,12.90
2018-05-16T04:29:36.457Z,13.00
2018-05-16T04:34:27.372Z,13.00
2018-05-16T04:39:18.269Z,13.00
2018-05-16T04:44:09.160Z,13.00
2018-05-16T04:49:00.852Z,13.10
2018-05-16T04:53:51.749Z,13.10
2018-05-16T04:58:42.692Z,13.10
2018-05-16T05:03:33.585Z,13.10
2018-05-16T05:08:24.490Z,13.20
2018-05-16T05:13:15.440Z,13.20
2018-05-16T05:18:06.360Z,13.20
2018-05-16T05:22:57.274Z,13.20
2018-05-16T05:27:48.217Z,13.20
2018-05-16T05:32:39.117Z,13.20
2018-05-16T05:37:30.033Z,13.30
2018-05-16T05:42:21.004Z,13.30
2018-05-16T05:47:12.714Z,13.40
2018-05-16T05:52:03.600Z,13.40
2018-05-16T05:56:54.501Z,13.50
2018-05-16T06:01:45.444Z,13.60
2018-05-16T06:06:36.360Z,13.70
2018-05-16T06:11:27.292Z,13.70
2018-05-16T06:16:19.408Z,13.90
2018-05-16T06:21:10.304Z,14.00
2018-05-16T06:26:01.200Z,14.20
2018-05-16T06:30:53.983Z,14.30
2018-05-16T06:35:44.944Z,14.40
2018-05-16T06:40:35.864Z,14.60
2018-05-16T06:45:27.489Z,14.70
2018-05-16T06:50:18.512Z,14.80
2018-05-16T06:55:09.457Z,15.00
2018-05-16T07:00:01.968Z,15.40
2018-05-16T07:04:52.881Z,15.40
2018-05-16T07:09:43.837Z,15.60
2018-05-16T07:14:34.729Z,15.70
2018-05-16T07:19:25.692Z,15.80
2018-05-16T07:24:17.330Z,15.90
2018-05-16T07:29:09.076Z,16.00
2018-05-16T07:34:00.704Z,16.10
2018-05-16T07:38:51.600Z,16.00
2018-05-16T07:43:42.992Z,16.10
2018-05-16T07:48:33.900Z,16.20
2018-05-16T07:53:24.864Z,16.30
2018-05-16T07:58:15.762Z,16.40
2018-05-16T08:03:06.738Z,16.50
2018-05-16T08:07:57.576Z,16.70
2018-05-16T08:12:48.580Z,16.80
2018-05-16T08:17:40.276Z,17.10
2018-05-16T08:22:31.168Z,17.10
2018-05-16T08:27:22.061Z,17.20
2018-05-16T08:32:13.758Z,17.60
2018-05-16T08:37:04.661Z,17.50
2018-05-16T08:41:55.564Z,17.70
2018-05-16T08:46:46.467Z,17.90
2018-05-16T08:51:37.356Z,18.00
2018-05-16T08:56:29.076Z,18.30
2018-05-16T09:01:20.092Z,18.30
2018-05-16T09:06:10.896Z,18.50
2018-05-16T09:11:01.813Z,18.60
2018-05-16T09:15:52.705Z,18.70
2018-05-16T09:20:43.604Z,18.70
2018-05-16T09:25:34.496Z,18.80
2018-05-16T09:30:26.131Z,19.00
2018-05-16T09:35:17.024Z,19.00
2018-05-16T09:40:07.920Z,19.10
2018-05-16T09:44:58.813Z,19.20
2018-05-16T09:49:49.717Z,19.30
2018-05-16T09:54:41.356Z,19.50
2018-05-16T09:59:32.261Z,19.50
2018-05-16T10:04:23.928Z,19.70
2018-05-16T10:09:14.816Z,19.70
2018-05-16T10:14:06.453Z,20.00
2018-05-16T10:18:58.089Z,20.10
2018-05-16T10:23:50.079Z,20.20
2018-05-16T10:28:40.873Z,20.20
2018-05-16T10:33:31.828Z,20.40
2018-05-16T10:38:22.720Z,20.50
2018-05-16T10:43:13.612Z,20.80
2018-05-16T10:48:04.521Z,21.00
2018-05-16T10:52:56.148Z,21.40
2018-05-16T10:57:47.780Z,21.60
2018-05-16T11:02:38.671Z,21.60
2018-05-16T11:07:29.592Z,21.90
2018-05-16T11:12:20.493Z,22.10
2018-05-16T11:17:11.393Z,22.30
2018-05-16T11:22:02.286Z,22.50
2018-05-16T11:26:53.924Z,23.10
2018-05-16T11:31:45.591Z,23.20
2018-05-16T11:36:36.626Z,23.20
2018-05-16T11:41:27.500Z,23.30
2018-05-16T11:46:19.144Z,23.50
2018-05-16T11:51:10.061Z,23.40
2018-05-16T11:56:00.970Z,23.60
2018-05-16T12:00:52.616Z,24.20
2018-05-16T12:05:43.515Z,24.10
2018-05-16T12:10:35.224Z,24.80
2018-05-16T12:15:26.120Z,24.80
2018-05-16T12:20:17.056Z,25.20
2018-05-16T12:25:14.972Z,25.70
2018-05-16T12:30:07.046Z,26.70
2018-05-16T12:34:57.942Z,26.60
2018-05-16T12:39:49.585Z,27.60
2018-05-16T12:44:41.219Z,27.90
2018-05-16T12:49:32.967Z,28.30
2018-05-16T12:54:23.772Z,28.30
2018-05-16T12:59:15.421Z,28.90
2018-05-16T13:04:06.380Z,28.80
2018-05-16T13:08:57.271Z,29.00
2018-05-16T13:13:48.167Z,29.00
2018-05-16T13:18:39.081Z,29.00
2018-05-16T13:23:30.716Z,28.60
2018-05-16T13:28:22.351Z,28.40
2018-05-16T13:33:13.984Z,28.20
2018-05-16T13:38:05.626Z,28.00
2018-05-16T13:42:56.522Z,28.00
2018-05-16T13:47:48.161Z,27.60
2018-05-16T13:52:39.796Z,27.40
2018-05-16T13:57:31.444Z,27.20
2018-05-16T14:02:23.136Z,26.90
2018-05-16T14:07:14.033Z,26.90
2018-05-16T14:12:04.944Z,26.60
2018-05-16T14:16:55.845Z,26.50
2018-05-16T14:21:46.746Z,26.50
2018-05-16T14:26:38.384Z,26.80
2018-05-16T14:31:30.025Z,26.80
2018-05-16T14:36:21.664Z,26.90
2018-05-16T14:41:12.561Z,26.80
2018-05-16T14:46:03.545Z,26.80
2018-05-16T14:50:54.448Z,26.80
2018-05-16T14:55:45.346Z,26.70
2018-05-16T15:00:36.273Z,26.70
2018-05-16T15:05:27.267Z,26.60
2018-05-16T15:10:18.905Z,26.50
2018-05-16T15:15:10.541Z,26.40
2018-05-16T15:20:01.448Z,26.40
2018-05-16T15:24:52.455Z,26.20
2018-05-16T15:29:43.351Z,25.90
2018-05-16T15:34:34.265Z,25.70
2018-05-16T15:39:25.160Z,25.40
2018-05-16T15:44:16.070Z,25.10
2018-05-16T15:49:06.969Z,24.80
2018-05-16T15:53:58.699Z,24.30
2018-05-16T15:58:50.344Z,24.00
2018-05-16T16:03:42.025Z,23.80
2018-05-16T16:08:32.928Z,23.80
2018-05-16T16:13:23.821Z,23.60
2018-05-16T16:18:15.456Z,23.20
2018-05-16T16:23:07.140Z,23.00
2018-05-16T16:27:58.032Z,23.00
2018-05-16T16:32:48.976Z,22.80
2018-05-16T16:37:39.865Z,22.60
2018-05-16T16:42:30.764Z,22.50
2018-05-16T16:47:21.652Z,22.30
2018-05-16T16:52:12.652Z,22.10
2018-05-16T16:57:03.627Z,22.00
2018-05-16T17:01:54.492Z,21.80
2018-05-16T17:06:45.775Z,21.60
2018-05-16T17:11:36.736Z,21.50
2018-05-16T17:16:27.657Z,21.40
2018-05-16T17:21:18.576Z,21.30
2018-05-16T17:26:09.472Z,21.20
2018-05-16T17:31:00.374Z,21.10
2018-05-16T17:35:51.309Z,21.00
2018-05-16T17:40:42.244Z,21.00
2018-05-16T17:45:33.164Z,20.80
2018-05-16T17:50:24.072Z,20.80
2018-05-16T17:55:15.005Z,20.70
2018-05-16T18:00:05.917Z,20.60
2018-05-16T18:04:56.839Z,20.60
2018-05-16T18:09:47.749Z,20.50
2018-05-16T18:20:02.637Z,20.30
2018-05-16T18:24:53.590Z,20.30
2018-05-16T18:29:44.507Z,20.20
2018-05-16T18:34:35.442Z,20.10
2018-05-16T18:39:26.444Z,20.00
2018-05-16T18:44:17.342Z,19.90
2018-05-16T18:49:08.300Z,19.80
2018-05-16T18:53:59.192Z,19.70
2018-05-16T18:58:50.125Z,19.60
2018-05-16T19:03:41.043Z,19.50
2018-05-16T19:08:31.957Z,19.40
2018-05-16T19:13:22.875Z,19.40
2018-05-16T19:18:13.764Z,19.20
2018-05-16T19:23:04.744Z,19.10
2018-05-16T19:27:56.448Z,18.90
2018-05-16T19:32:47.372Z,18.90
2018-05-16T19:37:38.269Z,18.80
2018-05-16T19:42:29.187Z,18.70
2018-05-16T19:47:20.168Z,18.60
2018-05-16T19:52:11.816Z,18.40
2018-05-16T19:57:02.728Z,18.30
2018-05-16T20:01:54.371Z,18.10
2018-05-16T20:06:45.335Z,18.10
2018-05-16T20:11:36.228Z,18.00
2018-05-16T20:16:27.170Z,17.90
2018-05-16T20:21:18.065Z,17.70
2018-05-16T20:26:09.180Z,17.70
2018-05-16T20:31:00.076Z,17.50
2018-05-16T20:35:51.713Z,17.30
2018-05-16T20:40:43.430Z,17.20
2018-05-16T20:45:34.420Z,17.10
2018-05-16T20:50:25.321Z,17.10
2018-05-16T20:55:16.213Z,17.00
2018-05-16T21:00:07.104Z,16.80
2018-05-16T21:04:58.008Z,16.70
2018-05-16T21:09:48.900Z,16.60
2018-05-16T21:14:39.832Z,16.50
2018-05-16T21:19:30.745Z,16.40
2018-05-16T21:24:21.645Z,16.30
2018-05-16T21:29:12.536Z,16.20
2018-05-16T21:34:04.220Z,16.00
2018-05-16T21:38:55.147Z,16.00
2018-05-16T21:43:46.056Z,15.90
2018-05-16T21:48:36.960Z,15.80
2018-05-16T21:53:27.904Z,15.70
2018-05-16T21:58:18.856Z,15.70
2018-05-16T22:03:10.554Z,15.50
2018-05-16T22:08:01.510Z,15.50
2018-05-16T22:12:53.230Z,15.30
2018-05-16T22:17:44.234Z,15.30
2018-05-16T22:22:35.147Z,15.30
2018-05-16T22:27:26.040Z,15.20
2018-05-16T22:32:23.325Z,15.10
2018-05-16T22:37:20.548Z,15.00
2018-05-16T22:42:18.429Z,14.80
2018-05-16T22:47:10.128Z,14.70
2018-05-16T22:52:01.039Z,14.70
2018-05-16T22:56:52.056Z,14.60
2018-05-16T23:01:42.996Z,14.60
2018-05-16T23:06:33.896Z,14.50
2018-05-16T23:11:24.813Z,14.40
2018-05-16T23:16:15.733Z,14.30
2018-05-16T23:21:06.628Z,14.30
2018-05-16T23:25:57.580Z,14.20
2018-05-16T23:30:48.478Z,14.20
2018-05-16T23:35:39.388Z,14.10
2018-05-16T23:40:30.280Z,14.10
2018-05-16T23:45:21.176Z,14.00
2018-05-16T23:50:12.882Z,13.90
2018-05-16T23:55:03.781Z,13.90
2018-05-16T23:59:54.685Z,13.90
